createdAt,value
2018-03-08T00:00:56.984Z,1004.25
2018-03-08T00:01:57.562Z,1004.31
2018-03-08T00:02:58.139Z,1004.33
2018-03-08T00:03:58.715Z,1004.23
2018-03-08T00:04:59.345Z,1004.29
2018-03-08T00:05:59.924Z,1004.27
2018-03-08T00:07:00.555Z,1004.27
2018-03-08T00:08:01.173Z,1004.27
2018-03-08T00:09:01.798Z,1004.27
2018-03-08T00:10:02.376Z,1004.27
2018-03-08T00:11:02.955Z,1004.36
2018-03-08T00:12:03.531Z,1004.28
2018-03-08T00:13:04.112Z,1004.33
2018-03-08T00:14:04.683Z,1004.27
2018-03-08T00:15:05.308Z,1004.26
2018-03-08T00:16:05.888Z,1004.23
2018-03-08T00:17:06.463Z,1004.32
2018-03-08T00:18:07.041Z,1004.32
2018-03-08T00:19:07.617Z,1004.32
2018-03-08T00:20:08.194Z,1004.31
2018-03-08T00:21:08.821Z,1004.45
2018-03-08T00:22:09.397Z,1004.42
2018-03-08T00:23:09.975Z,1004.42
2018-03-08T00:24:10.602Z,1004.35
2018-03-08T00:25:11.178Z,1004.43
2018-03-08T00:26:11.755Z,1004.37
2018-03-08T00:27:12.331Z,1004.43
2018-03-08T00:28:12.909Z,1004.43
2018-03-08T00:29:13.484Z,1004.49
2018-03-08T00:31:24.632Z,1004.58
2018-03-08T00:32:25.207Z,1004.62
2018-03-08T00:33:25.785Z,1004.47
2018-03-08T00:34:26.412Z,1004.53
2018-03-08T00:35:27.001Z,1004.61
2018-03-08T00:36:27.668Z,1004.57
2018-03-08T00:37:28.244Z,1004.58
2018-03-08T00:38:28.817Z,1004.55
2018-03-08T00:39:29.395Z,1004.60
2018-03-08T00:40:29.969Z,1004.62
2018-03-08T00:41:30.544Z,1004.59
2018-03-08T00:42:31.120Z,1004.50
2018-03-08T00:43:31.696Z,1004.50
2018-03-08T00:44:32.275Z,1004.49
2018-03-08T00:45:32.859Z,1004.47
2018-03-08T00:46:33.430Z,1004.47
2018-03-08T00:47:34.008Z,1004.48
2018-03-08T00:48:34.585Z,1004.43
2018-03-08T00:49:35.160Z,1004.43
2018-03-08T00:50:35.785Z,1004.47
2018-03-08T00:51:36.362Z,1004.41
2018-03-08T00:52:36.990Z,1004.38
2018-03-08T00:53:37.565Z,1004.40
2018-03-08T00:54:38.189Z,1004.37
2018-03-08T00:55:38.768Z,1004.38
2018-03-08T00:56:39.343Z,1004.35
2018-03-08T00:57:39.920Z,1004.29
2018-03-08T00:58:40.494Z,1004.31
2018-03-08T00:59:41.074Z,1004.37
2018-03-08T01:00:41.645Z,1004.34
2018-03-08T01:01:42.222Z,1004.22
2018-03-08T01:02:42.797Z,1004.25
2018-03-08T01:03:43.373Z,1004.30
2018-03-08T01:04:43.953Z,1004.27
2018-03-08T01:05:44.529Z,1004.27
2018-03-08T01:06:45.108Z,1004.28
2018-03-08T01:07:45.686Z,1004.33
2018-03-08T01:08:46.311Z,1004.31
2018-03-08T01:09:46.887Z,1004.35
2018-03-08T01:10:47.614Z,1004.35
2018-03-08T01:11:48.189Z,1004.35
2018-03-08T01:12:48.771Z,1004.33
2018-03-08T01:13:49.344Z,1004.31
2018-03-08T01:14:49.973Z,1004.37
2018-03-08T01:15:50.547Z,1004.36
2018-03-08T01:16:51.127Z,1004.31
2018-03-08T01:17:51.747Z,1004.30
2018-03-08T01:18:52.322Z,1004.29
2018-03-08T01:19:52.901Z,1004.34
2018-03-08T01:20:53.477Z,1004.39
2018-03-08T01:21:54.054Z,1004.42
2018-03-08T01:22:54.628Z,1004.46
2018-03-08T01:23:55.204Z,1004.49
2018-03-08T01:24:55.780Z,1004.38
2018-03-08T01:25:56.406Z,1004.41
2018-03-08T01:26:56.984Z,1004.42
2018-03-08T01:27:57.558Z,1004.47
2018-03-08T01:28:58.185Z,1004.43
2018-03-08T01:29:58.759Z,1004.49
2018-03-08T01:30:59.336Z,1004.50
2018-03-08T01:31:59.916Z,1004.56
2018-03-08T01:33:00.538Z,1004.56
2018-03-08T01:34:01.113Z,1004.73
2018-03-08T01:35:01.690Z,1004.69
2018-03-08T01:36:02.271Z,1004.70
2018-03-08T01:37:02.882Z,1004.71
2018-03-08T01:38:03.459Z,1004.73
2018-03-08T01:39:04.034Z,1004.73
2018-03-08T01:40:04.610Z,1004.76
2018-03-08T01:41:05.189Z,1004.71
2018-03-08T01:42:05.816Z,1004.64
2018-03-08T01:43:06.396Z,1004.73
2018-03-08T01:44:07.019Z,1004.66
2018-03-08T01:45:07.596Z,1004.68
2018-03-08T01:46:08.177Z,1004.64
2018-03-08T01:47:08.754Z,1004.61
2018-03-08T01:48:09.378Z,1004.64
2018-03-08T01:49:09.960Z,1004.56
2018-03-08T01:50:10.532Z,1004.62
2018-03-08T01:51:11.109Z,1004.65
2018-03-08T01:52:11.685Z,1004.71
2018-03-08T01:53:12.260Z,1004.68
2018-03-08T01:54:12.835Z,1004.64
2018-03-08T01:55:13.410Z,1004.61
2018-03-08T01:56:13.994Z,1004.63
2018-03-08T01:57:14.560Z,1004.62
2018-03-08T01:58:15.137Z,1004.65
2018-03-08T01:59:15.713Z,1004.51
2018-03-08T02:00:16.289Z,1004.50
2018-03-08T02:01:16.863Z,1004.50
2018-03-08T02:02:17.509Z,1004.55
2018-03-08T02:03:18.148Z,1004.55
2018-03-08T02:04:18.774Z,1004.52
2018-03-08T02:05:19.351Z,1004.60
2018-03-08T02:06:19.931Z,1004.62
2018-03-08T02:07:20.655Z,1004.61
2018-03-08T02:08:21.233Z,1004.60
2018-03-08T02:09:21.808Z,1004.65
2018-03-08T02:10:22.386Z,1004.66
2018-03-08T02:11:22.963Z,1004.53
2018-03-08T02:12:23.540Z,1004.53
2018-03-08T02:13:24.118Z,1004.53
2018-03-08T02:14:24.742Z,1004.46
2018-03-08T02:15:25.321Z,1004.52
2018-03-08T02:16:25.897Z,1004.49
2018-03-08T02:17:26.474Z,1004.57
2018-03-08T02:18:27.201Z,1004.57
2018-03-08T02:19:27.775Z,1004.57
2018-03-08T02:20:28.351Z,1004.55
2018-03-08T02:21:28.925Z,1004.62
2018-03-08T02:22:29.501Z,1004.60
2018-03-08T02:23:30.130Z,1004.55
2018-03-08T02:24:30.756Z,1004.63
2018-03-08T02:25:31.334Z,1004.70
2018-03-08T02:26:31.912Z,1004.64
2018-03-08T02:27:32.489Z,1004.65
2018-03-08T02:28:33.071Z,1004.61
2018-03-08T02:29:33.644Z,1004.62
2018-03-08T02:30:34.221Z,1004.59
2018-03-08T02:31:34.796Z,1004.58
2018-03-08T02:32:35.372Z,1004.60
2018-03-08T02:33:35.949Z,1004.57
2018-03-08T02:34:36.575Z,1004.48
2018-03-08T02:35:37.152Z,1004.64
2018-03-08T02:36:37.731Z,1004.61
2018-03-08T02:37:38.312Z,1004.58
2018-03-08T02:38:38.923Z,1004.57
2018-03-08T02:39:39.498Z,1004.59
2018-03-08T02:40:40.072Z,1004.61
2018-03-08T02:41:40.699Z,1004.57
2018-03-08T02:42:41.324Z,1004.70
2018-03-08T02:43:41.901Z,1004.57
2018-03-08T02:44:42.480Z,1004.57
2018-03-08T02:45:43.057Z,1004.65
2018-03-08T02:46:43.639Z,1004.67
2018-03-08T02:47:44.210Z,1004.71
2018-03-08T02:48:44.786Z,1004.71
2018-03-08T02:49:45.365Z,1004.71
2018-03-08T02:50:45.941Z,1004.71
2018-03-08T02:51:46.561Z,1004.66
2018-03-08T02:52:47.136Z,1004.72
2018-03-08T02:53:47.779Z,1004.61
2018-03-08T02:54:48.389Z,1004.71
2018-03-08T02:55:48.965Z,1004.70
2018-03-08T02:56:49.687Z,1004.74
2018-03-08T02:57:50.266Z,1004.69
2018-03-08T02:58:50.898Z,1004.66
2018-03-08T02:59:51.469Z,1004.69
2018-03-08T03:00:52.046Z,1004.54
2018-03-08T03:01:52.672Z,1004.60
2018-03-08T03:02:53.247Z,1004.65
2018-03-08T03:03:53.823Z,1004.60
2018-03-08T03:04:54.406Z,1004.65
2018-03-08T03:05:54.977Z,1004.70
2018-03-08T03:06:55.553Z,1004.73
2018-03-08T03:07:56.127Z,1004.71
2018-03-08T03:08:56.702Z,1004.74
2018-03-08T03:09:57.371Z,1004.73
2018-03-08T03:10:57.905Z,1004.75
2018-03-08T03:11:58.479Z,1004.75
2018-03-08T03:12:59.056Z,1004.74
2018-03-08T03:13:59.631Z,1004.73
2018-03-08T03:15:00.256Z,1004.76
2018-03-08T03:16:00.832Z,1004.69
2018-03-08T03:17:01.409Z,1004.77
2018-03-08T03:18:02.009Z,1004.81
2018-03-08T03:19:02.614Z,1004.82
2018-03-08T03:20:03.188Z,1004.83
2018-03-08T03:21:03.764Z,1004.86
2018-03-08T03:22:04.388Z,1004.81
2018-03-08T03:23:04.968Z,1004.91
2018-03-08T03:24:05.543Z,1004.80
2018-03-08T03:25:06.169Z,1004.81
2018-03-08T03:26:06.746Z,1004.85
2018-03-08T03:27:07.322Z,1004.90
2018-03-08T03:28:07.901Z,1004.96
2018-03-08T03:29:08.475Z,1004.93
2018-03-08T03:30:09.054Z,1004.96
2018-03-08T03:31:09.680Z,1004.92
2018-03-08T03:32:10.256Z,1004.90
2018-03-08T03:33:10.833Z,1004.92
2018-03-08T03:34:11.409Z,1004.97
2018-03-08T03:35:11.986Z,1005.00
2018-03-08T03:36:12.561Z,1004.96
2018-03-08T03:37:13.140Z,1005.05
2018-03-08T03:38:13.809Z,1004.99
2018-03-08T03:39:14.388Z,1004.93
2018-03-08T03:40:15.013Z,1005.01
2018-03-08T03:41:15.586Z,1004.96
2018-03-08T03:42:16.162Z,1004.98
2018-03-08T03:43:16.738Z,1004.96
2018-03-08T03:44:17.315Z,1004.93
2018-03-08T03:45:17.892Z,1004.98
2018-03-08T03:46:18.471Z,1004.91
2018-03-08T03:47:19.092Z,1004.93
2018-03-08T03:48:19.668Z,1004.91
2018-03-08T03:49:20.286Z,1004.89
2018-03-08T03:50:20.860Z,1004.93
2018-03-08T03:51:21.484Z,1004.91
2018-03-08T03:52:22.062Z,1004.94
2018-03-08T03:53:22.640Z,1005.06
2018-03-08T03:54:23.217Z,1005.08
2018-03-08T03:55:23.791Z,1005.05
2018-03-08T03:56:24.367Z,1005.01
2018-03-08T03:57:24.992Z,1005.02
2018-03-08T03:58:25.566Z,1004.95
2018-03-08T03:59:26.143Z,1004.95
2018-03-08T04:00:26.719Z,1005.06
2018-03-08T04:01:27.346Z,1005.06
2018-03-08T04:02:27.922Z,1005.01
2018-03-08T04:03:28.496Z,1005.04
2018-03-08T04:04:29.075Z,1004.95
2018-03-08T04:05:29.690Z,1005.02
2018-03-08T04:06:30.268Z,1005.01
2018-03-08T04:07:30.874Z,1005.09
2018-03-08T04:08:31.471Z,1005.08
2018-03-08T04:09:32.047Z,1005.10
2018-03-08T04:10:32.622Z,1005.11
2018-03-08T04:11:33.199Z,1005.06
2018-03-08T04:12:33.774Z,1005.15
2018-03-08T04:13:34.352Z,1005.22
2018-03-08T04:14:34.930Z,1005.11
2018-03-08T04:15:35.508Z,1005.17
2018-03-08T04:16:36.135Z,1005.28
2018-03-08T04:17:36.712Z,1005.22
2018-03-08T04:18:37.340Z,1005.22
2018-03-08T04:19:37.919Z,1005.27
2018-03-08T04:20:38.491Z,1005.21
2018-03-08T04:21:39.068Z,1005.27
2018-03-08T04:22:39.644Z,1005.35
2018-03-08T04:23:40.224Z,1005.35
2018-03-08T04:24:40.797Z,1005.38
2018-03-08T04:25:41.374Z,1005.37
2018-03-08T04:26:41.950Z,1005.39
2018-03-08T04:27:42.526Z,1005.42
2018-03-08T04:28:43.106Z,1005.48
2018-03-08T04:29:43.682Z,1005.48
2018-03-08T04:30:44.260Z,1005.47
2018-03-08T04:31:44.885Z,1005.48
2018-03-08T04:32:45.460Z,1005.52
2018-03-08T04:33:46.037Z,1005.47
2018-03-08T04:34:46.612Z,1005.54
2018-03-08T04:35:47.237Z,1005.43
2018-03-08T04:36:47.864Z,1005.52
2018-03-08T04:37:48.439Z,1005.57
2018-03-08T04:38:49.016Z,1005.53
2018-03-08T04:39:49.594Z,1005.54
2018-03-08T04:40:50.168Z,1005.55
2018-03-08T04:41:50.746Z,1005.54
2018-03-08T04:42:51.324Z,1005.50
2018-03-08T04:43:51.900Z,1005.52
2018-03-08T04:44:52.481Z,1005.53
2018-03-08T04:45:53.056Z,1005.50
2018-03-08T04:46:53.630Z,1005.45
2018-03-08T04:47:54.255Z,1005.50
2018-03-08T04:48:54.842Z,1005.49
2018-03-08T04:49:55.410Z,1005.56
2018-03-08T04:50:55.989Z,1005.54
2018-03-08T04:51:56.564Z,1005.45
2018-03-08T04:52:57.188Z,1005.49
2018-03-08T04:53:57.765Z,1005.44
2018-03-08T04:54:58.341Z,1005.49
2018-03-08T04:55:58.975Z,1005.51
2018-03-08T04:56:59.539Z,1005.49
2018-03-08T04:58:00.119Z,1005.47
2018-03-08T04:59:00.694Z,1005.42
2018-03-08T05:00:01.266Z,1005.38
2018-03-08T05:01:01.843Z,1005.39
2018-03-08T05:02:02.421Z,1005.42
2018-03-08T05:03:02.996Z,1005.47
2018-03-08T05:04:03.575Z,1005.42
2018-03-08T05:05:04.201Z,1005.36
2018-03-08T05:06:04.819Z,1005.45
2018-03-08T05:07:05.397Z,1005.36
2018-03-08T05:08:05.972Z,1005.47
2018-03-08T05:09:06.700Z,1005.40
2018-03-08T05:10:07.339Z,1005.44
2018-03-08T05:11:07.946Z,1005.39
2018-03-08T05:12:08.522Z,1005.45
2018-03-08T05:13:09.100Z,1005.42
2018-03-08T05:14:09.677Z,1005.46
2018-03-08T05:15:10.254Z,1005.45
2018-03-08T05:16:10.831Z,1005.43
2018-03-08T05:17:11.409Z,1005.47
2018-03-08T05:18:12.024Z,1005.42
2018-03-08T05:19:12.601Z,1005.49
2018-03-08T05:20:13.179Z,1005.43
2018-03-08T05:21:13.755Z,1005.51
2018-03-08T05:22:14.333Z,1005.59
2018-03-08T05:23:14.908Z,1005.65
2018-03-08T05:24:15.536Z,1005.64
2018-03-08T05:25:16.114Z,1005.56
2018-03-08T05:26:16.687Z,1005.58
2018-03-08T05:27:17.314Z,1005.58
2018-03-08T05:28:17.890Z,1005.58
2018-03-08T05:29:18.514Z,1005.66
2018-03-08T05:30:19.091Z,1005.61
2018-03-08T05:31:19.667Z,1005.73
2018-03-08T05:32:20.393Z,1005.66
2018-03-08T05:33:20.971Z,1005.63
2018-03-08T05:34:21.545Z,1005.69
2018-03-08T05:35:22.121Z,1005.65
2018-03-08T05:36:22.695Z,1005.67
2018-03-08T05:37:23.271Z,1005.68
2018-03-08T05:38:23.888Z,1005.61
2018-03-08T05:39:24.463Z,1005.61
2018-03-08T05:40:25.090Z,1005.70
2018-03-08T05:41:25.715Z,1005.69
2018-03-08T05:42:26.290Z,1005.68
2018-03-08T05:43:26.866Z,1005.74
2018-03-08T05:44:27.442Z,1005.72
2018-03-08T05:45:28.069Z,1005.67
2018-03-08T05:46:28.647Z,1005.68
2018-03-08T05:47:29.270Z,1005.76
2018-03-08T05:48:29.851Z,1005.69
2018-03-08T05:49:30.429Z,1005.70
2018-03-08T05:50:31.006Z,1005.78
2018-03-08T05:51:31.582Z,1005.72
2018-03-08T05:52:32.158Z,1005.66
2018-03-08T05:53:32.735Z,1005.78
2018-03-08T05:54:33.310Z,1005.77
2018-03-08T05:55:33.891Z,1005.76
2018-03-08T05:56:34.465Z,1005.80
2018-03-08T05:57:35.043Z,1005.87
2018-03-08T05:58:35.618Z,1005.76
2018-03-08T05:59:36.194Z,1005.82
2018-03-08T06:00:36.770Z,1005.83
2018-03-08T06:01:37.397Z,1005.80
2018-03-08T06:02:37.974Z,1005.87
2018-03-08T06:03:38.598Z,1005.80
2018-03-08T06:04:39.175Z,1005.80
2018-03-08T06:05:39.802Z,1005.91
2018-03-08T06:06:40.418Z,1005.79
2018-03-08T06:07:41.038Z,1005.78
2018-03-08T06:08:41.613Z,1005.79
2018-03-08T06:09:42.189Z,1005.77
2018-03-08T06:10:42.765Z,1005.81
2018-03-08T06:11:43.339Z,1005.83
2018-03-08T06:12:43.920Z,1005.84
2018-03-08T06:13:44.492Z,1005.86
2018-03-08T06:14:45.063Z,1005.89
2018-03-08T06:15:45.637Z,1005.85
2018-03-08T06:16:46.213Z,1005.81
2018-03-08T06:17:46.791Z,1005.81
2018-03-08T06:18:47.412Z,1005.87
2018-03-08T06:19:48.041Z,1005.87
2018-03-08T06:20:48.616Z,1005.86
2018-03-08T06:21:49.279Z,1005.88
2018-03-08T06:22:49.811Z,1005.83
2018-03-08T06:23:50.389Z,1005.86
2018-03-08T06:24:50.966Z,1005.85
2018-03-08T06:25:51.543Z,1005.89
2018-03-08T06:26:52.118Z,1005.89
2018-03-08T06:27:52.699Z,1005.84
2018-03-08T06:28:53.320Z,1005.74
2018-03-08T06:29:53.895Z,1005.71
2018-03-08T06:30:54.625Z,1005.76
2018-03-08T06:31:55.201Z,1005.78
2018-03-08T06:32:55.982Z,1005.76
2018-03-08T06:33:56.553Z,1005.74
2018-03-08T06:34:57.129Z,1005.84
2018-03-08T06:35:57.706Z,1005.76
2018-03-08T06:36:58.281Z,1005.87
2018-03-08T06:37:58.908Z,1005.90
2018-03-08T06:38:59.709Z,1005.74
2018-03-08T06:40:00.260Z,1005.86
2018-03-08T06:41:00.834Z,1005.80
2018-03-08T06:42:01.410Z,1005.83
2018-03-08T06:43:01.985Z,1005.89
2018-03-08T06:44:02.561Z,1005.78
2018-03-08T06:45:03.140Z,1005.80
2018-03-08T06:46:03.714Z,1005.82
2018-03-08T06:47:04.331Z,1005.89
2018-03-08T06:48:04.958Z,1005.80
2018-03-08T06:49:05.585Z,1005.93
2018-03-08T06:50:06.202Z,1005.87
2018-03-08T06:51:06.782Z,1005.80
2018-03-08T06:52:07.357Z,1005.84
2018-03-08T06:53:07.933Z,1005.82
2018-03-08T06:54:08.509Z,1005.82
2018-03-08T06:55:09.086Z,1005.75
2018-03-08T06:56:09.666Z,1005.72
2018-03-08T06:57:10.294Z,1005.77
2018-03-08T06:58:10.869Z,1005.74
2018-03-08T06:59:11.447Z,1005.74
2018-03-08T07:00:12.022Z,1005.83
2018-03-08T07:01:12.597Z,1005.84
2018-03-08T07:02:13.172Z,1005.75
2018-03-08T07:03:13.747Z,1005.84
2018-03-08T07:04:14.324Z,1005.83
2018-03-08T07:05:14.950Z,1005.88
2018-03-08T07:06:15.577Z,1005.91
2018-03-08T07:07:16.154Z,1005.92
2018-03-08T07:08:16.731Z,1005.94
2018-03-08T07:09:17.307Z,1006.01
2018-03-08T07:10:17.887Z,1006.01
2018-03-08T07:11:18.459Z,1006.09
2018-03-08T07:12:19.034Z,1006.14
2018-03-08T07:13:19.611Z,1006.08
2018-03-08T07:14:20.186Z,1006.04
2018-03-08T07:15:20.812Z,1006.09
2018-03-08T07:16:21.387Z,1006.12
2018-03-08T07:17:21.962Z,1006.02
2018-03-08T07:18:22.541Z,1006.07
2018-03-08T07:19:23.167Z,1006.05
2018-03-08T07:20:23.744Z,1006.05
2018-03-08T07:21:24.322Z,1006.06
2018-03-08T07:22:24.925Z,1006.10
2018-03-08T07:23:25.524Z,1006.07
2018-03-08T07:24:26.101Z,1006.07
2018-03-08T07:25:26.748Z,1006.13
2018-03-08T07:26:27.309Z,1006.18
2018-03-08T07:27:27.881Z,1006.24
2018-03-08T07:28:28.506Z,1006.23
2018-03-08T07:29:29.032Z,1006.28
2018-03-08T07:30:29.657Z,1006.39
2018-03-08T07:31:30.233Z,1006.35
2018-03-08T07:32:30.808Z,1006.32
2018-03-08T07:33:31.385Z,1006.25
2018-03-08T07:34:32.010Z,1006.28
2018-03-08T07:35:32.584Z,1006.30
2018-03-08T07:36:33.161Z,1006.35
2018-03-08T07:37:33.737Z,1006.36
2018-03-08T07:38:34.314Z,1006.37
2018-03-08T07:39:34.889Z,1006.40
2018-03-08T07:40:35.466Z,1006.38
2018-03-08T07:41:36.042Z,1006.36
2018-03-08T07:42:36.665Z,1006.37
2018-03-08T07:43:37.245Z,1006.42
2018-03-08T07:44:37.869Z,1006.41
2018-03-08T07:45:38.443Z,1006.38
2018-03-08T07:46:39.017Z,1006.38
2018-03-08T07:47:39.593Z,1006.25
2018-03-08T07:48:40.169Z,1006.41
2018-03-08T07:49:40.743Z,1006.27
2018-03-08T07:50:41.317Z,1006.36
2018-03-08T07:51:42.044Z,1006.27
2018-03-08T07:52:42.620Z,1006.28
2018-03-08T07:53:43.197Z,1006.37
2018-03-08T07:54:43.771Z,1006.35
2018-03-08T07:55:44.348Z,1006.24
2018-03-08T07:56:44.922Z,1006.30
2018-03-08T07:57:45.497Z,1006.33
2018-03-08T07:58:46.071Z,1006.36
2018-03-08T07:59:46.646Z,1006.41
2018-03-08T08:00:47.220Z,1006.43
2018-03-08T08:01:47.794Z,1006.35
2018-03-08T08:02:48.421Z,1006.47
2018-03-08T08:03:48.997Z,1006.47
2018-03-08T08:04:49.622Z,1006.47
2018-03-08T08:05:50.201Z,1006.47
2018-03-08T08:06:50.774Z,1006.42
2018-03-08T08:07:51.401Z,1006.53
2018-03-08T08:08:51.976Z,1006.52
2018-03-08T08:09:52.553Z,1006.61
2018-03-08T08:10:53.130Z,1006.54
2018-03-08T08:11:53.706Z,1006.60
2018-03-08T08:12:54.282Z,1006.53
2018-03-08T08:13:54.856Z,1006.56
2018-03-08T08:14:55.431Z,1006.58
2018-03-08T08:15:56.068Z,1006.61
2018-03-08T08:16:56.633Z,1006.65
2018-03-08T08:17:57.214Z,1006.58
2018-03-08T08:18:57.783Z,1006.56
2018-03-08T08:19:58.359Z,1006.60
2018-03-08T08:20:58.968Z,1006.63
2018-03-08T08:21:59.507Z,1006.56
2018-03-08T08:23:00.232Z,1006.67
2018-03-08T08:24:00.805Z,1006.66
2018-03-08T08:25:01.380Z,1006.69
2018-03-08T08:26:02.006Z,1006.67
2018-03-08T08:27:02.581Z,1006.66
2018-03-08T08:28:03.157Z,1006.60
2018-03-08T08:29:03.733Z,1006.67
2018-03-08T08:30:04.309Z,1006.67
2018-03-08T08:31:04.934Z,1006.67
2018-03-08T08:32:05.563Z,1006.72
2018-03-08T08:33:06.138Z,1006.73
2018-03-08T08:34:06.714Z,1006.80
2018-03-08T08:35:07.288Z,1006.70
2018-03-08T08:36:07.863Z,1006.74
2018-03-08T08:37:08.439Z,1006.73
2018-03-08T08:38:09.015Z,1006.74
2018-03-08T08:39:09.593Z,1006.76
2018-03-08T08:40:10.169Z,1006.74
2018-03-08T08:41:10.747Z,1006.71
2018-03-08T08:42:11.372Z,1006.84
2018-03-08T08:43:11.949Z,1006.79
2018-03-08T08:44:12.574Z,1006.75
2018-03-08T08:45:13.149Z,1006.77
2018-03-08T08:46:13.726Z,1006.72
2018-03-08T08:47:14.301Z,1006.74
2018-03-08T08:48:14.875Z,1006.78
2018-03-08T08:49:15.453Z,1006.78
2018-03-08T08:50:16.183Z,1006.83
2018-03-08T08:51:16.813Z,1006.87
2018-03-08T08:52:17.394Z,1006.88
2018-03-08T08:53:17.975Z,1006.93
2018-03-08T08:54:18.558Z,1006.88
2018-03-08T08:55:19.136Z,1007.02
2018-03-08T08:56:19.717Z,1007.00
2018-03-08T08:57:20.296Z,1006.96
2018-03-08T08:58:20.877Z,1007.04
2018-03-08T08:59:21.457Z,1007.03
2018-03-08T09:00:22.035Z,1007.01
2018-03-08T09:01:22.614Z,1007.01
2018-03-08T09:02:23.242Z,1007.00
2018-03-08T09:03:23.820Z,1007.14
2018-03-08T09:04:24.400Z,1007.05
2018-03-08T09:05:25.135Z,1007.08
2018-03-08T09:06:25.715Z,1007.05
2018-03-08T09:07:26.295Z,1007.10
2018-03-08T09:08:26.875Z,1007.09
2018-03-08T09:09:27.455Z,1007.03
2018-03-08T09:10:28.186Z,1007.03
2018-03-08T09:11:28.764Z,1007.02
2018-03-08T09:12:29.345Z,1007.02
2018-03-08T09:13:29.926Z,1006.99
2018-03-08T09:14:30.506Z,1007.05
2018-03-08T09:15:31.088Z,1007.07
2018-03-08T09:16:31.669Z,1007.03
2018-03-08T09:17:32.249Z,1007.07
2018-03-08T09:18:32.830Z,1007.09
2018-03-08T09:19:33.411Z,1007.19
2018-03-08T09:20:33.998Z,1007.14
2018-03-08T09:21:34.616Z,1007.20
2018-03-08T09:22:35.200Z,1007.13
2018-03-08T09:23:35.830Z,1007.20
2018-03-08T09:24:36.464Z,1007.17
2018-03-08T09:25:37.086Z,1007.20
2018-03-08T09:26:37.672Z,1007.20
2018-03-08T09:27:38.304Z,1007.16
2018-03-08T09:28:38.831Z,1007.23
2018-03-08T09:29:39.462Z,1007.18
2018-03-08T09:30:40.044Z,1007.14
2018-03-08T09:31:40.622Z,1007.13
2018-03-08T09:32:41.202Z,1007.25
2018-03-08T09:33:41.784Z,1007.25
2018-03-08T09:34:42.365Z,1007.26
2018-03-08T09:35:42.944Z,1007.19
2018-03-08T09:36:43.525Z,1007.20
2018-03-08T09:37:44.154Z,1007.24
2018-03-08T09:38:44.734Z,1007.22
2018-03-08T09:39:45.316Z,1007.28
2018-03-08T09:40:45.893Z,1007.29
2018-03-08T09:41:46.473Z,1007.24
2018-03-08T09:42:47.055Z,1007.32
2018-03-08T09:43:47.691Z,1007.34
2018-03-08T09:44:48.311Z,1007.30
2018-03-08T09:45:48.948Z,1007.24
2018-03-08T09:46:49.527Z,1007.25
2018-03-08T09:47:50.105Z,1007.32
2018-03-08T09:48:50.685Z,1007.30
2018-03-08T09:49:51.263Z,1007.28
2018-03-08T09:50:51.847Z,1007.34
2018-03-08T09:51:52.429Z,1007.34
2018-03-08T09:52:53.006Z,1007.34
2018-03-08T09:53:53.586Z,1007.34
2018-03-08T09:54:54.171Z,1007.42
2018-03-08T09:55:54.749Z,1007.38
2018-03-08T09:56:55.330Z,1007.38
2018-03-08T09:57:55.911Z,1007.35
2018-03-08T09:58:56.544Z,1007.31
2018-03-08T09:59:57.071Z,1007.39
2018-03-08T10:00:57.801Z,1007.42
2018-03-08T10:01:58.435Z,1007.42
2018-03-08T10:02:59.055Z,1007.45
2018-03-08T10:03:59.634Z,1007.46
2018-03-08T10:05:00.262Z,1007.53
2018-03-08T10:06:00.845Z,1007.47
2018-03-08T10:07:01.424Z,1007.50
2018-03-08T10:08:02.008Z,1007.49
2018-03-08T10:09:02.588Z,1007.45
2018-03-08T10:10:03.167Z,1007.41
2018-03-08T10:11:03.748Z,1007.51
2018-03-08T10:12:04.333Z,1007.49
2018-03-08T10:13:04.909Z,1007.46
2018-03-08T10:14:05.488Z,1007.51
2018-03-08T10:15:06.070Z,1007.55
2018-03-08T10:16:06.650Z,1007.50
2018-03-08T10:17:07.231Z,1007.48
2018-03-08T10:18:07.813Z,1007.47
2018-03-08T10:19:08.394Z,1007.56
2018-03-08T10:20:08.974Z,1007.48
2018-03-08T10:21:09.556Z,1007.68
2018-03-08T10:22:10.187Z,1007.60
2018-03-08T10:23:10.817Z,1007.73
2018-03-08T10:24:11.398Z,1007.61
2018-03-08T10:25:12.028Z,1007.62
2018-03-08T10:26:12.665Z,1007.73
2018-03-08T10:27:13.186Z,1007.80
2018-03-08T10:28:13.770Z,1007.73
2018-03-08T10:29:14.351Z,1007.76
2018-03-08T10:30:14.931Z,1007.78
2018-03-08T10:31:15.512Z,1007.83
2018-03-08T10:32:16.096Z,1007.82
2018-03-08T10:33:16.771Z,1007.87
2018-03-08T10:34:17.296Z,1007.82
2018-03-08T10:35:17.877Z,1007.90
2018-03-08T10:36:18.459Z,1007.84
2018-03-08T10:37:19.040Z,1007.78
2018-03-08T10:38:19.621Z,1007.91
2018-03-08T10:40:21.826Z,1007.82
2018-03-08T10:41:22.407Z,1007.89
2018-03-08T10:42:22.988Z,1007.92
2018-03-08T10:43:23.570Z,1007.93
2018-03-08T10:44:24.201Z,1007.92
2018-03-08T10:45:24.832Z,1007.86
2018-03-08T10:46:25.415Z,1007.89
2018-03-08T10:47:25.996Z,1007.98
2018-03-08T10:48:26.580Z,1007.89
2018-03-08T10:49:27.162Z,1007.96
2018-03-08T10:50:27.756Z,1007.89
2018-03-08T10:51:28.328Z,1007.92
2018-03-08T10:52:28.910Z,1007.87
2018-03-08T10:53:29.492Z,1007.97
2018-03-08T10:54:30.076Z,1007.87
2018-03-08T10:55:30.656Z,1007.84
2018-03-08T10:56:31.389Z,1007.96
2018-03-08T10:57:31.971Z,1007.98
2018-03-08T10:58:33.250Z,1007.89
2018-03-08T10:59:33.137Z,1007.96
2018-03-08T11:00:33.725Z,1008.01
2018-03-08T11:01:34.341Z,1008.05
2018-03-08T11:02:34.923Z,1008.05
2018-03-08T11:03:35.505Z,1008.05
2018-03-08T11:04:36.134Z,1008.04
2018-03-08T11:05:36.716Z,1008.03
2018-03-08T11:06:37.295Z,1008.06
2018-03-08T11:07:38.027Z,1008.09
2018-03-08T11:08:38.609Z,1008.07
2018-03-08T11:09:39.191Z,1008.07
2018-03-08T11:10:39.771Z,1008.10
2018-03-08T11:11:40.354Z,1008.12
2018-03-08T11:12:40.933Z,1008.14
2018-03-08T11:13:41.514Z,1008.17
2018-03-08T11:14:42.145Z,1008.19
2018-03-08T11:15:42.728Z,1008.25
2018-03-08T11:16:43.309Z,1008.24
2018-03-08T11:17:43.890Z,1008.15
2018-03-08T11:18:44.472Z,1008.19
2018-03-08T11:19:45.051Z,1008.16
2018-03-08T11:20:45.633Z,1008.16
2018-03-08T11:21:46.217Z,1008.13
2018-03-08T11:22:46.798Z,1008.17
2018-03-08T11:23:47.381Z,1008.14
2018-03-08T11:24:48.010Z,1008.17
2018-03-08T11:25:48.593Z,1008.25
2018-03-08T11:26:49.223Z,1008.24
2018-03-08T11:27:49.803Z,1008.17
2018-03-08T11:28:50.388Z,1008.19
2018-03-08T11:29:51.015Z,1008.26
2018-03-08T11:30:51.596Z,1008.31
2018-03-08T11:31:52.180Z,1008.20
2018-03-08T11:32:52.762Z,1008.20
2018-03-08T11:33:53.344Z,1008.24
2018-03-08T11:34:53.928Z,1008.25
2018-03-08T11:35:54.561Z,1008.32
2018-03-08T11:36:55.141Z,1008.30
2018-03-08T11:37:55.729Z,1008.28
2018-03-08T11:38:56.308Z,1008.27
2018-03-08T11:39:56.890Z,1008.23
2018-03-08T11:40:57.472Z,1008.32
2018-03-08T11:41:58.102Z,1008.26
2018-03-08T11:42:58.875Z,1008.23
2018-03-08T11:43:59.458Z,1008.29
2018-03-08T11:45:00.042Z,1008.23
2018-03-08T11:46:00.623Z,1008.27
2018-03-08T11:47:02.211Z,1008.18
2018-03-08T11:48:01.787Z,1008.19
2018-03-08T11:49:02.374Z,1008.14
2018-03-08T11:50:02.953Z,1008.24
2018-03-08T11:51:03.533Z,1008.19
2018-03-08T11:52:04.116Z,1008.17
2018-03-08T11:53:04.748Z,1008.27
2018-03-08T11:54:05.329Z,1008.27
2018-03-08T11:55:05.911Z,1008.24
2018-03-08T11:56:06.494Z,1008.18
2018-03-08T11:57:07.077Z,1008.20
2018-03-08T11:58:07.661Z,1008.24
2018-03-08T11:59:08.338Z,1008.19
2018-03-08T12:00:09.068Z,1008.24
2018-03-08T12:01:09.653Z,1008.23
2018-03-08T12:02:10.234Z,1008.31
2018-03-08T12:03:10.817Z,1008.19
2018-03-08T12:04:11.398Z,1008.24
2018-03-08T12:05:11.979Z,1008.24
2018-03-08T12:06:12.561Z,1008.26
2018-03-08T12:07:13.142Z,1008.33
2018-03-08T12:08:13.726Z,1008.29
2018-03-08T12:09:14.307Z,1008.27
2018-03-08T12:10:14.890Z,1008.36
2018-03-08T12:11:15.471Z,1008.32
2018-03-08T12:12:16.055Z,1008.30
2018-03-08T12:13:16.642Z,1008.30
2018-03-08T12:14:17.264Z,1008.32
2018-03-08T12:15:17.898Z,1008.27